Time;durP1;ratioP1;P1;durP2;ratioP2;P2;SDS_P1;SDS_P2;PMS_P1;PMS_P2;Temp;Humidity;BMP_temperature;BMP_pressure;BME280_temperature;BME280_humidity;BME280_pressure;Samples;Min_cycle;Max_cycle;Signal;HPM_P1;HPM_P2
2023/02/22 00:01:34;;;;;;;6.78;2.70;;;;;;;;;;5038319;28;20075;-66
2023/02/22 00:04:01;;;;;;;7.85;3.33;;;;;;;;;;5035260;28;20036;-67
2023/02/22 00:06:26;;;;;;;6.57;3.00;;;;;;;;;;5053310;28;20044;-66
2023/02/22 00:08:51;;;;;;;6.95;2.92;;;;;;;;;;5043195;28;20053;-66
2023/02/22 00:11:16;;;;;;;8.83;3.53;;;;;;;;;;5039971;28;20400;-65
2023/02/22 00:13:43;;;;;;;8.10;3.58;;;;;;;;;;5036779;28;20026;-65
2023/02/22 00:16:11;;;;;;;7.38;3.03;;;;;;;;;;5039508;28;20033;-66
2023/02/22 00:18:36;;;;;;;7.47;3.03;;;;;;;;;;5039252;28;20398;-66
2023/02/22 00:21:02;;;;;;;9.32;3.70;;;;;;;;;;5037453;28;20041;-65
2023/02/22 00:23:28;;;;;;;6.97;3.20;;;;;;;;;;5043813;28;20041;-65
2023/02/22 00:25:53;;;;;;;;;;;;;;;;;;5043010;28;20044;-66
2023/02/22 00:28:19;;;;;;;7.63;3.40;;;;;;;;;;5042996;28;19944;-65
2023/02/22 00:30:44;;;;;;;9.33;3.57;;;;;;;;;;5038891;28;20420;-65
2023/02/22 00:33:11;;;;;;;7.53;3.58;;;;;;;;;;5031437;28;20135;-65
2023/02/22 00:35:36;;;;;;;;;;;;;;;;;;5030311;28;20027;-65
2023/02/22 00:38:02;;;;;;;8.10;3.40;;;;;;;;;;5040660;28;19905;-66
2023/02/22 00:40:29;;;;;;;8.68;3.50;;;;;;;;;;5050643;28;20017;-65
2023/02/22 00:42:55;;;;;;;8.85;3.30;;;;;;;;;;5039562;28;20045;-66
2023/02/22 00:45:21;;;;;;;8.07;3.47;;;;;;;;;;5032717;28;20408;-66
2023/02/22 00:47:47;;;;;;;8.38;3.58;;;;;;;;;;5037729;28;20077;-66
2023/02/22 00:50:12;;;;;;;7.82;3.40;;;;;;;;;;5028021;28;20755;-66
2023/02/22 00:52:37;;;;;;;6.90;3.13;;;;;;;;;;5038434;28;20017;-66
2023/02/22 00:55:04;;;;;;;6.90;2.80;;;;;;;;;;5035582;28;20095;-66
2023/02/22 00:57:30;;;;;;;7.55;3.13;;;;;;;;;;5032029;28;20380;-67
2023/02/22 00:59:55;;;;;;;8.07;3.03;;;;;;;;;;5036578;28;20055;-66
2023/02/22 01:02:20;;;;;;;6.90;2.97;;;;;;;;;;5037134;28;20511;-66
2023/02/22 01:04:45;;;;;;;7.25;3.28;;;;;;;;;;5035298;28;20013;-65
2023/02/22 01:07:10;;;;;;;6.80;3.10;;;;;;;;;;5034663;28;20029;-66
2023/02/22 01:09:36;;;;;;;8.30;3.60;;;;;;;;;;5041271;28;20036;-65
2023/02/22 01:12:01;;;;;;;7.85;3.22;;;;;;;;;;5041666;28;20031;-64
2023/02/22 01:14:27;;;;;;;7.03;3.27;;;;;;;;;;5041981;28;20381;-64
2023/02/22 01:16:53;;;;;;;7.18;3.08;;;;;;;;;;5040892;28;20025;-66
2023/02/22 01:19:18;;;;;;;8.10;3.53;;;;;;;;;;5040621;28;20016;-64
2023/02/22 01:21:43;;;;;;;8.30;3.80;;;;;;;;;;5036952;28;20377;-66
2023/02/22 01:24:08;;;;;;;8.23;4.30;;;;;;;;;;5041678;28;20075;-65
2023/02/22 01:26:33;;;;;;;8.15;3.92;;;;;;;;;;5040069;28;20021;-66
2023/02/22 01:28:59;;;;;;;7.80;3.60;;;;;;;;;;5041234;28;20037;-66
2023/02/22 01:31:24;;;;;;;9.20;3.80;;;;;;;;;;5043218;28;20025;-66
2023/02/22 01:33:52;;;;;;;8.70;3.43;;;;;;;;;;5039220;28;20024;-66
2023/02/22 01:36:17;;;;;;;8.13;3.53;;;;;;;;;;5040984;28;20091;-67
2023/02/22 01:38:43;;;;;;;7.87;3.50;;;;;;;;;;5036117;28;20029;-65
2023/02/22 01:41:09;;;;;;;7.13;3.42;;;;;;;;;;5037885;28;20448;-65
2023/02/22 01:43:34;;;;;;;7.28;2.90;;;;;;;;;;5044646;28;20095;-66
2023/02/22 01:46:03;;;;;;;7.60;3.22;;;;;;;;;;5037595;28;20021;-65
2023/02/22 01:48:43;;;;;;;8.48;3.47;;;;;;;;;;5024291;28;20300;-66
2023/02/22 01:51:11;;;;;;;7.68;3.38;;;;;;;;;;5029108;28;20079;-65
2023/02/22 01:53:45;;;;;;;7.03;3.28;;;;;;;;;;5040022;28;20073;-66
2023/02/22 01:56:11;;;;;;;6.80;3.10;;;;;;;;;;5046606;28;20052;-67
2023/02/22 01:58:38;;;;;;;6.45;3.10;;;;;;;;;;5040588;28;20067;-66
2023/02/22 02:01:04;;;;;;;7.70;3.42;;;;;;;;;;5037847;28;20018;-64
2023/02/22 02:03:32;;;;;;;8.05;3.10;;;;;;;;;;5039627;28;20044;-65
2023/02/22 02:05:59;;;;;;;9.05;3.85;;;;;;;;;;5035735;28;20360;-65
2023/02/22 02:08:30;;;;;;;7.55;3.40;;;;;;;;;;5038769;28;20052;-66
2023/02/22 02:10:55;;;;;;;7.55;3.47;;;;;;;;;;5043637;28;20081;-65
2023/02/22 02:13:20;;;;;;;9.18;3.80;;;;;;;;;;5053725;28;20362;-66
2023/02/22 02:15:48;;;;;;;7.85;3.53;;;;;;;;;;5030672;28;20075;-64
2023/02/22 02:18:13;;;;;;;8.13;3.58;;;;;;;;;;5045190;28;20049;-65
2023/02/22 02:20:48;;;;;;;9.37;4.37;;;;;;;;;;5039244;28;20041;-64
2023/02/22 02:23:16;;;;;;;8.55;3.70;;;;;;;;;;5040002;28;20055;-66
2023/02/22 02:25:56;;;;;;;8.88;3.97;;;;;;;;;;5026493;28;20381;-66
2023/02/22 02:28:40;;;;;;;7.85;3.80;;;;;;;;;;5039514;28;20076;-65
2023/02/22 02:31:05;;;;;;;;;;;;;;;;;;5031124;28;20104;-66
2023/02/22 02:33:32;;;;;;;8.35;3.40;;;;;;;;;;5041878;28;20106;-66
2023/02/22 02:36:03;;;;;;;7.75;3.42;;;;;;;;;;5029915;28;20067;-64
2023/02/22 02:38:31;;;;;;;8.85;3.55;;;;;;;;;;5026458;28;20021;-64
2023/02/22 02:40:59;;;;;;;8.40;3.40;;;;;;;;;;5035156;28;20463;-65
2023/02/22 02:43:27;;;;;;;8.23;3.53;;;;;;;;;;5032537;28;20029;-65
2023/02/22 02:45:54;;;;;;;7.95;3.85;;;;;;;;;;5045953;28;20025;-65
2023/02/22 02:48:21;;;;;;;8.23;3.40;;;;;;;;;;5043415;28;20075;-65
2023/02/22 02:50:47;;;;;;;8.10;3.65;;;;;;;;;;5038279;28;20691;-66
2023/02/22 02:53:15;;;;;;;9.05;4.03;;;;;;;;;;5036591;28;20041;-65
2023/02/22 02:55:41;;;;;;;8.73;3.60;;;;;;;;;;5036233;28;20029;-65
2023/02/22 02:58:06;;;;;;;11.90;3.92;;;;;;;;;;5042542;28;20033;-65
2023/02/22 03:00:38;;;;;;;8.70;3.75;;;;;;;;;;5044446;28;20038;-67
2023/02/22 03:03:22;;;;;;;8.93;3.70;;;;;;;;;;5044479;28;20025;-68
2023/02/22 03:06:00;;;;;;;7.75;3.42;;;;;;;;;;5027224;28;20036;-65
2023/02/22 03:08:31;;;;;;;8.02;3.53;;;;;;;;;;5028960;28;20017;-64
2023/02/22 03:11:00;;;;;;;11.07;4.30;;;;;;;;;;5030547;28;20017;-66
2023/02/22 03:13:29;;;;;;;7.97;3.90;;;;;;;;;;5048316;28;20021;-66
2023/02/22 03:16:04;;;;;;;10.10;3.85;;;;;;;;;;5031397;28;20026;-67
2023/02/22 03:18:35;;;;;;;9.82;3.97;;;;;;;;;;5027027;28;20337;-66
2023/02/22 03:21:12;;;;;;;7.75;3.35;;;;;;;;;;5042945;28;20017;-66
2023/02/22 03:23:42;;;;;;;7.38;3.50;;;;;;;;;;5032314;28;20028;-66
2023/02/22 03:26:28;;;;;;;8.23;3.70;;;;;;;;;;5031591;28;20104;-66
2023/02/22 03:28:54;;;;;;;8.18;3.42;;;;;;;;;;5030048;28;20029;-67
2023/02/22 03:31:24;;;;;;;9.80;4.20;;;;;;;;;;5037903;28;20026;-65
2023/02/22 03:33:51;;;;;;;8.00;3.67;;;;;;;;;;5033302;28;20055;-65
2023/02/22 03:36:33;;;;;;;8.95;4.18;;;;;;;;;;5048167;28;20103;-64
2023/02/22 03:38:59;;;;;;;9.23;4.25;;;;;;;;;;5041760;28;20033;-66
2023/02/22 03:41:25;;;;;;;8.38;3.88;;;;;;;;;;5036229;28;20016;-66
2023/02/22 03:43:59;;;;;;;9.00;3.85;;;;;;;;;;5034746;28;20029;-66
2023/02/22 03:46:28;;;;;;;11.45;4.28;;;;;;;;;;5040148;28;20017;-65
2023/02/22 03:48:53;;;;;;;8.70;4.07;;;;;;;;;;5035880;28;20029;-67
2023/02/22 03:51:21;;;;;;;11.77;4.40;;;;;;;;;;5030801;28;20029;-65
2023/02/22 03:53:49;;;;;;;9.45;4.47;;;;;;;;;;5026235;28;20096;-66
2023/02/22 03:56:21;;;;;;;8.80;3.85;;;;;;;;;;5027946;28;20021;-65
2023/02/22 03:58:47;;;;;;;11.52;4.20;;;;;;;;;;5029267;28;20037;-66
2023/02/22 04:01:12;;;;;;;9.98;3.97;;;;;;;;;;5037181;28;20025;-66
2023/02/22 04:03:39;;;;;;;9.23;4.60;;;;;;;;;;5027820;28;20405;-66
2023/02/22 04:06:04;;;;;;;10.00;4.68;;;;;;;;;;5029529;28;20492;-66
2023/02/22 04:08:29;;;;;;;8.83;4.10;;;;;;;;;;5030118;28;20018;-65
2023/02/22 04:10:54;;;;;;;9.93;4.50;;;;;;;;;;5029987;28;20079;-65
2023/02/22 04:13:19;;;;;;;9.30;4.40;;;;;;;;;;5030226;28;20025;-65
2023/02/22 04:15:44;;;;;;;11.77;4.57;;;;;;;;;;5032874;28;20038;-66
2023/02/22 04:18:09;;;;;;;9.40;4.43;;;;;;;;;;5030962;28;20396;-66
2023/02/22 04:20:35;;;;;;;8.80;4.17;;;;;;;;;;5036756;28;20091;-66
2023/02/22 04:23:00;;;;;;;9.70;4.37;;;;;;;;;;5038956;28;20481;-66
2023/02/22 04:25:25;;;;;;;11.47;4.40;;;;;;;;;;5043467;28;20488;-65
2023/02/22 04:27:50;;;;;;;9.32;4.13;;;;;;;;;;5037638;28;20476;-65
2023/02/22 04:30:17;;;;;;;11.45;4.97;;;;;;;;;;5035654;28;20469;-66
2023/02/22 04:32:42;;;;;;;9.13;4.20;;;;;;;;;;5033581;28;20109;-66
2023/02/22 04:35:07;;;;;;;9.73;4.57;;;;;;;;;;5043020;28;20112;-66
2023/02/22 04:37:33;;;;;;;11.73;4.65;;;;;;;;;;5035236;28;20033;-65
2023/02/22 04:39:59;;;;;;;9.07;4.15;;;;;;;;;;5040381;28;20029;-65
2023/02/22 04:42:24;;;;;;;8.75;3.92;;;;;;;;;;5036036;28;20038;-66
2023/02/22 04:44:49;;;;;;;8.55;4.05;;;;;;;;;;5034398;28;20489;-65
2023/02/22 04:47:14;;;;;;;10.77;4.20;;;;;;;;;;5027437;28;20035;-66
2023/02/22 04:49:40;;;;;;;9.35;3.90;;;;;;;;;;5034846;28;20032;-66
2023/02/22 04:52:05;;;;;;;8.25;3.85;;;;;;;;;;5031765;28;20033;-67
2023/02/22 04:54:30;;;;;;;9.80;4.10;;;;;;;;;;5032157;28;20124;-66
2023/02/22 04:56:56;;;;;;;10.18;3.90;;;;;;;;;;5024346;28;20021;-66
2023/02/22 04:59:21;;;;;;;10.18;3.85;;;;;;;;;;5039716;28;20032;-66
2023/02/22 05:01:46;;;;;;;9.10;4.22;;;;;;;;;;5036370;28;20036;-65
2023/02/22 05:04:11;;;;;;;10.57;3.97;;;;;;;;;;5031637;28;20025;-65
2023/02/22 05:06:37;;;;;;;9.47;4.10;;;;;;;;;;5045293;28;20021;-65
2023/02/22 05:09:02;;;;;;;11.70;4.30;;;;;;;;;;5033655;28;20493;-65
2023/02/22 05:11:28;;;;;;;8.73;4.38;;;;;;;;;;5043471;28;20038;-65
2023/02/22 05:13:53;;;;;;;8.67;4.20;;;;;;;;;;5034474;28;20028;-67
2023/02/22 05:16:18;;;;;;;8.93;3.80;;;;;;;;;;5041001;28;20033;-65
2023/02/22 05:18:43;;;;;;;8.83;3.80;;;;;;;;;;5038695;28;20224;-65
2023/02/22 05:21:08;;;;;;;9.83;4.43;;;;;;;;;;5048395;28;20032;-66
2023/02/22 05:23:33;;;;;;;9.13;4.47;;;;;;;;;;5033613;28;20033;-67
2023/02/22 05:25:59;;;;;;;13.63;5.17;;;;;;;;;;5032323;28;20028;-66
2023/02/22 05:28:24;;;;;;;10.52;4.40;;;;;;;;;;5036250;28;20500;-65
2023/02/22 05:30:49;;;;;;;12.50;4.77;;;;;;;;;;5040397;28;20061;-65
2023/02/22 05:33:15;;;;;;;10.93;4.70;;;;;;;;;;5034703;28;20048;-66
2023/02/22 05:35:40;;;;;;;10.32;4.22;;;;;;;;;;5036850;28;20053;-65
2023/02/22 05:38:05;;;;;;;11.90;4.10;;;;;;;;;;5040065;28;20075;-66
2023/02/22 05:40:31;;;;;;;9.40;4.30;;;;;;;;;;5045744;28;20026;-65
2023/02/22 05:42:56;;;;;;;11.50;4.72;;;;;;;;;;5040694;28;20456;-65
2023/02/22 05:45:22;;;;;;;10.37;4.03;;;;;;;;;;5030362;28;20029;-65
2023/02/22 05:47:48;;;;;;;9.10;3.70;;;;;;;;;;5043005;28;20063;-64
2023/02/22 05:50:13;;;;;;;10.52;4.82;;;;;;;;;;5042752;28;20045;-67
2023/02/22 05:52:39;;;;;;;10.48;4.25;;;;;;;;;;5035408;28;20436;-65
2023/02/22 05:55:04;;;;;;;12.00;4.72;;;;;;;;;;5036251;28;20043;-65
2023/02/22 05:57:30;;;;;;;11.32;4.30;;;;;;;;;;5032357;28;20098;-66
2023/02/22 05:59:55;;;;;;;11.00;4.50;;;;;;;;;;5034336;28;20495;-67
2023/02/22 06:02:20;;;;;;;10.50;4.50;;;;;;;;;;5029831;28;20563;-65
2023/02/22 06:04:45;;;;;;;9.43;4.30;;;;;;;;;;5029705;28;20496;-64
2023/02/22 06:07:11;;;;;;;10.35;4.38;;;;;;;;;;5030025;28;20030;-65
2023/02/22 06:09:36;;;;;;;10.13;4.80;;;;;;;;;;5028120;28;20052;-66
2023/02/22 06:12:01;;;;;;;12.40;4.80;;;;;;;;;;5035655;28;20115;-66
2023/02/22 06:14:26;;;;;;;12.37;5.53;;;;;;;;;;5027802;28;20022;-67
2023/02/22 06:16:52;;;;;;;11.00;4.50;;;;;;;;;;5031408;28;20133;-67
2023/02/22 06:19:17;;;;;;;11.18;4.80;;;;;;;;;;5031712;28;20092;-65
2023/02/22 06:21:49;;;;;;;12.75;5.82;;;;;;;;;;5021054;28;20021;-66
2023/02/22 06:24:15;;;;;;;12.38;4.70;;;;;;;;;;5027125;28;20581;-65
2023/02/22 06:26:40;;;;;;;11.77;5.22;;;;;;;;;;5028211;28;20029;-66
2023/02/22 06:29:06;;;;;;;15.20;5.32;;;;;;;;;;5023150;28;20552;-65
2023/02/22 06:31:31;;;;;;;10.63;4.67;;;;;;;;;;5027515;28;20108;-67
2023/02/22 06:33:56;;;;;;;12.93;5.53;;;;;;;;;;5027971;28;20025;-66
2023/02/22 06:36:21;;;;;;;13.38;5.57;;;;;;;;;;5026428;28;20021;-67
2023/02/22 06:38:46;;;;;;;16.33;5.47;;;;;;;;;;5018776;28;20071;-67
2023/02/22 06:41:11;;;;;;;13.82;5.07;;;;;;;;;;5028583;28;20487;-66
2023/02/22 06:43:39;;;;;;;17.60;7.25;;;;;;;;;;5027443;28;20030;-67
2023/02/22 06:46:08;;;;;;;15.68;6.40;;;;;;;;;;5033419;28;20114;-66
2023/02/22 06:48:35;;;;;;;17.30;6.78;;;;;;;;;;5025715;28;20140;-66
2023/02/22 06:51:00;;;;;;;14.75;5.93;;;;;;;;;;5028373;28;20380;-66
2023/02/22 06:53:25;;;;;;;16.52;5.45;;;;;;;;;;5026232;28;20020;-66
2023/02/22 06:55:52;;;;;;;15.57;5.43;;;;;;;;;;5031049;28;20164;-65
2023/02/22 06:58:17;;;;;;;15.35;5.78;;;;;;;;;;5033153;28;20021;-67
2023/02/22 07:00:42;;;;;;;12.43;5.38;;;;;;;;;;5044842;28;20036;-65
2023/02/22 07:03:07;;;;;;;11.77;5.22;;;;;;;;;;5037748;28;20063;-66
2023/02/22 07:05:32;;;;;;;13.18;5.95;;;;;;;;;;5027815;28;20109;-65
2023/02/22 07:08:02;;;;;;;15.53;5.60;;;;;;;;;;5030397;28;20037;-65
2023/02/22 07:10:28;;;;;;;12.73;5.43;;;;;;;;;;5030220;28;20013;-65
2023/02/22 07:12:54;;;;;;;13.15;5.93;;;;;;;;;;5029601;28;20071;-67
2023/02/22 07:15:23;;;;;;;11.65;5.32;;;;;;;;;;5026863;28;20664;-67
2023/02/22 07:17:48;;;;;;;13.35;5.50;;;;;;;;;;5030101;28;20428;-67
2023/02/22 07:20:13;;;;;;;15.32;6.88;;;;;;;;;;5025942;28;20017;-65
2023/02/22 07:22:38;;;;;;;19.53;8.00;;;;;;;;;;5040836;28;20052;-65
2023/02/22 07:25:05;;;;;;;19.33;7.93;;;;;;;;;;5040313;28;20025;-67
2023/02/22 07:27:30;;;;;;;19.60;7.70;;;;;;;;;;5026341;28;20460;-67
2023/02/22 07:29:55;;;;;;;18.83;7.30;;;;;;;;;;5043893;28;20033;-64
2023/02/22 07:32:20;;;;;;;16.27;6.00;;;;;;;;;;5042191;28;20021;-65
2023/02/22 07:34:45;;;;;;;12.63;5.93;;;;;;;;;;5035781;28;20029;-65
2023/02/22 07:37:11;;;;;;;14.00;6.05;;;;;;;;;;5044664;28;20477;-65
2023/02/22 07:39:36;;;;;;;13.68;6.22;;;;;;;;;;5034516;28;20090;-65
2023/02/22 07:42:02;;;;;;;11.93;5.50;;;;;;;;;;5026351;28;20032;-64
2023/02/22 07:44:27;;;;;;;14.43;5.60;;;;;;;;;;5046540;28;20029;-64
2023/02/22 07:46:52;;;;;;;10.55;5.10;;;;;;;;;;5040427;28;20499;-65
2023/02/22 07:49:17;;;;;;;13.20;5.20;;;;;;;;;;5035927;28;20028;-65
2023/02/22 07:51:42;;;;;;;12.38;5.13;;;;;;;;;;5033763;28;20114;-65
2023/02/22 07:54:08;;;;;;;11.13;5.13;;;;;;;;;;5035258;28;20045;-66
2023/02/22 07:56:33;;;;;;;11.15;4.90;;;;;;;;;;5046521;28;20028;-65
2023/02/22 07:58:59;;;;;;;12.45;5.18;;;;;;;;;;5026692;28;20110;-64
2023/02/22 08:01:24;;;;;;;13.25;5.80;;;;;;;;;;5025278;28;20103;-67
2023/02/22 08:03:49;;;;;;;10.77;5.27;;;;;;;;;;5038009;28;20120;-64
2023/02/22 08:06:15;;;;;;;14.33;5.67;;;;;;;;;;5033697;28;20105;-65
2023/02/22 08:08:40;;;;;;;12.43;5.68;;;;;;;;;;5026133;28;20018;-65
2023/02/22 08:11:05;;;;;;;11.80;5.57;;;;;;;;;;5039564;28;20022;-65
2023/02/22 08:13:30;;;;;;;12.50;5.50;;;;;;;;;;5029416;28;20567;-64
2023/02/22 08:15:55;;;;;;;15.13;5.97;;;;;;;;;;5029267;28;20022;-65
2023/02/22 08:18:21;;;;;;;12.60;5.60;;;;;;;;;;5029976;28;20029;-65
2023/02/22 08:20:47;;;;;;;15.07;5.85;;;;;;;;;;5029424;28;20116;-65
2023/02/22 08:23:13;;;;;;;14.85;6.07;;;;;;;;;;5010783;28;20087;-65
2023/02/22 08:25:38;;;;;;;12.25;6.07;;;;;;;;;;5027674;28;20104;-65
2023/02/22 08:28:05;;;;;;;14.43;6.40;;;;;;;;;;5040338;28;20041;-68
2023/02/22 08:30:30;;;;;;;13.82;5.85;;;;;;;;;;5034249;28;20017;-67
2023/02/22 08:32:56;;;;;;;14.80;6.20;;;;;;;;;;5029564;28;20534;-65
2023/02/22 08:35:22;;;;;;;14.43;6.53;;;;;;;;;;5033369;28;20064;-66
2023/02/22 08:37:48;;;;;;;13.90;5.80;;;;;;;;;;5034138;28;20512;-66
2023/02/22 08:40:16;;;;;;;12.05;5.25;;;;;;;;;;5032865;28;20079;-67
2023/02/22 08:42:41;;;;;;;17.00;6.40;;;;;;;;;;5030510;28;20033;-67
2023/02/22 08:45:06;;;;;;;13.90;6.00;;;;;;;;;;5027000;28;20021;-67
2023/02/22 08:47:32;;;;;;;14.10;5.97;;;;;;;;;;5033523;28;20477;-66
2023/02/22 08:49:57;;;;;;;14.88;6.50;;;;;;;;;;5040730;28;20539;-66
2023/02/22 08:52:22;;;;;;;21.03;6.47;;;;;;;;;;5044720;28;20024;-66
2023/02/22 08:54:47;;;;;;;14.43;6.25;;;;;;;;;;5031444;28;20024;-66
2023/02/22 08:57:12;;;;;;;16.03;7.03;;;;;;;;;;5033935;28;20121;-66
2023/02/22 08:59:38;;;;;;;18.95;7.30;;;;;;;;;;5033765;28;20056;-66
2023/02/22 09:02:03;;;;;;;14.77;6.97;;;;;;;;;;5027276;28;20064;-67
2023/02/22 09:04:29;;;;;;;17.50;7.53;;;;;;;;;;5030988;28;20025;-65
2023/02/22 09:06:54;;;;;;;14.32;6.53;;;;;;;;;;5032914;28;20040;-67
2023/02/22 09:09:20;;;;;;;16.80;6.82;;;;;;;;;;5036857;28;20036;-65
2023/02/22 09:11:45;;;;;;;14.00;6.20;;;;;;;;;;5033864;28;20045;-64
2023/02/22 09:14:10;;;;;;;15.10;6.53;;;;;;;;;;5032730;28;20041;-65
2023/02/22 09:16:36;;;;;;;15.90;7.30;;;;;;;;;;5033251;28;20025;-64
2023/02/22 09:19:02;;;;;;;16.83;7.65;;;;;;;;;;5033030;28;20029;-65
2023/02/22 09:21:28;;;;;;;16.17;7.30;;;;;;;;;;5031737;28;20557;-65
2023/02/22 09:23:53;;;;;;;17.25;7.88;;;;;;;;;;5032552;28;20448;-66
2023/02/22 09:26:18;;;;;;;17.60;7.65;;;;;;;;;;5032238;28;20034;-65
2023/02/22 09:28:43;;;;;;;16.92;8.02;;;;;;;;;;5032370;28;20090;-65
2023/02/22 09:31:08;;;;;;;16.23;7.25;;;;;;;;;;5032966;28;20033;-65
2023/02/22 09:33:34;;;;;;;18.60;7.72;;;;;;;;;;5032503;28;20379;-65
2023/02/22 09:36:00;;;;;;;16.02;7.28;;;;;;;;;;5028784;28;20061;-65
2023/02/22 09:38:28;;;;;;;16.92;7.55;;;;;;;;;;5032151;28;20017;-66
2023/02/22 09:41:02;;;;;;;15.98;7.28;;;;;;;;;;5032295;28;20477;-65
2023/02/22 09:43:46;;;;;;;17.50;7.63;;;;;;;;;;5032124;28;20209;-65
2023/02/22 09:46:21;;;;;;;16.52;7.85;;;;;;;;;;5031047;28;20022;-65
2023/02/22 09:48:46;;;;;;;18.23;7.85;;;;;;;;;;5032525;28;20009;-64
2023/02/22 09:51:14;;;;;;;16.40;7.32;;;;;;;;;;5029072;28;20018;-67
2023/02/22 09:53:42;;;;;;;14.07;6.68;;;;;;;;;;5032231;28;20067;-65
2023/02/22 09:56:09;;;;;;;17.77;6.95;;;;;;;;;;5028120;28;20025;-64
2023/02/22 09:58:41;;;;;;;13.57;7.03;;;;;;;;;;5032078;28;20049;-64
2023/02/22 10:01:06;;;;;;;16.52;7.55;;;;;;;;;;5029313;28;20108;-66
2023/02/22 10:03:31;;;;;;;16.27;7.72;;;;;;;;;;5025496;28;20041;-66
2023/02/22 10:06:08;;;;;;;15.63;7.78;;;;;;;;;;5031597;28;20128;-66
2023/02/22 10:08:33;;;;;;;15.23;7.35;;;;;;;;;;5031112;28;20104;-66
2023/02/22 10:11:10;;;;;;;16.63;7.17;;;;;;;;;;5017853;28;20111;-66
2023/02/22 10:13:42;;;;;;;14.80;7.22;;;;;;;;;;5012578;28;20435;-66
2023/02/22 10:16:25;;;;;;;15.75;7.35;;;;;;;;;;5022775;28;20025;-66
2023/02/22 10:19:15;;;;;;;14.73;7.03;;;;;;;;;;5031981;28;20492;-66
2023/02/22 10:21:47;;;;;;;13.13;6.32;;;;;;;;;;5032107;28;20442;-66
2023/02/22 10:24:12;;;;;;;13.68;6.75;;;;;;;;;;5030660;28;20033;-66
2023/02/22 10:26:40;;;;;;;14.23;6.97;;;;;;;;;;5031640;28;20032;-67
2023/02/22 10:29:13;;;;;;;12.98;6.18;;;;;;;;;;5030175;28;20061;-65
2023/02/22 10:31:41;;;;;;;10.95;5.47;;;;;;;;;;5030017;28;20033;-66
2023/02/22 10:34:12;;;;;;;15.57;6.45;;;;;;;;;;5030718;28;20018;-64
2023/02/22 10:36:38;;;;;;;12.65;6.03;;;;;;;;;;5031324;28;20028;-64
2023/02/22 10:39:23;;;;;;;11.35;5.45;;;;;;;;;;5031639;28;20021;-66
2023/02/22 10:41:50;;;;;;;11.85;5.22;;;;;;;;;;5031655;28;20024;-67
2023/02/22 10:44:15;;;;;;;13.18;4.95;;;;;;;;;;5030757;28;20029;-65
2023/02/22 10:46:41;;;;;;;10.70;4.95;;;;;;;;;;5029759;28;20469;-67
2023/02/22 10:49:07;;;;;;;10.50;4.68;;;;;;;;;;5031484;28;20032;-66
2023/02/22 10:51:32;;;;;;;11.10;4.90;;;;;;;;;;5031441;28;20052;-64
2023/02/22 10:54:30;;;;;;;9.50;5.20;;;;;;;;;;5028189;28;20366;-67
2023/02/22 10:56:55;;;;;;;9.75;4.72;;;;;;;;;;5012222;28;20124;-65
2023/02/22 10:59:37;;;;;;;10.48;4.97;;;;;;;;;;5031382;28;20444;-66
2023/02/22 11:02:28;;;;;;;11.30;5.00;;;;;;;;;;5030172;28;20044;-65
2023/02/22 11:04:55;;;;;;;10.70;4.78;;;;;;;;;;5025445;28;20112;-66
2023/02/22 11:07:23;;;;;;;9.43;4.55;;;;;;;;;;5030748;28;20036;-66
2023/02/22 11:10:04;;;;;;;9.43;5.18;;;;;;;;;;5031135;28;20380;-66
2023/02/22 11:12:30;;;;;;;11.50;4.90;;;;;;;;;;5032377;28;20025;-64
2023/02/22 11:14:55;;;;;;;9.65;5.47;;;;;;;;;;5032303;28;20353;-65
2023/02/22 11:17:29;;;;;;;10.37;5.20;;;;;;;;;;5033018;28;20100;-65
2023/02/22 11:19:54;;;;;;;12.23;5.18;;;;;;;;;;5032638;28;20149;-65
2023/02/22 11:22:20;;;;;;;9.97;5.13;;;;;;;;;;5032548;28;20061;-64
2023/02/22 11:24:49;;;;;;;10.15;4.82;;;;;;;;;;5032856;28;20075;-66
2023/02/22 11:27:27;;;;;;;8.15;4.40;;;;;;;;;;5031379;28;20033;-66
2023/02/22 11:29:52;;;;;;;11.07;5.05;;;;;;;;;;5030809;28;20091;-64
2023/02/22 11:32:21;;;;;;;8.32;4.50;;;;;;;;;;5029475;28;20485;-67
2023/02/22 11:34:46;;;;;;;11.25;5.03;;;;;;;;;;5030027;28;20456;-66
2023/02/22 11:37:16;;;;;;;7.78;4.35;;;;;;;;;;5030595;28;20041;-64
2023/02/22 11:39:42;;;;;;;9.48;4.40;;;;;;;;;;5030143;28;20025;-65
2023/02/22 11:42:24;;;;;;;8.70;4.28;;;;;;;;;;5029984;28;20104;-66
2023/02/22 11:45:07;;;;;;;10.13;3.90;;;;;;;;;;5029560;28;20029;-66
2023/02/22 11:47:32;;;;;;;6.38;3.40;;;;;;;;;;5030360;28;20033;-66
2023/02/22 11:49:57;;;;;;;6.17;3.30;;;;;;;;;;5030284;28;20026;-66
2023/02/22 11:52:39;;;;;;;6.13;3.05;;;;;;;;;;5030008;28;20055;-68
2023/02/22 11:55:26;;;;;;;7.15;3.30;;;;;;;;;;5029456;28;20033;-70
2023/02/22 11:58:00;;;;;;;7.60;3.90;;;;;;;;;;5031533;28;20651;-66
2023/02/22 12:00:32;;;;;;;6.78;3.20;;;;;;;;;;5028761;28;20018;-66
2023/02/22 12:03:16;;;;;;;7.32;3.28;;;;;;;;;;5030061;28;20064;-66
2023/02/22 12:06:02;;;;;;;5.65;3.00;;;;;;;;;;5029522;28;20022;-66
2023/02/22 12:08:35;;;;;;;6.05;3.40;;;;;;;;;;5031736;28;20412;-64
2023/02/22 12:11:09;;;;;;;7.05;3.65;;;;;;;;;;5036856;28;20057;-64
2023/02/22 12:13:53;;;;;;;6.93;3.38;;;;;;;;;;5036662;28;20028;-66
2023/02/22 12:16:22;;;;;;;7.90;3.63;;;;;;;;;;5034652;28;20044;-64
2023/02/22 12:19:01;;;;;;;7.95;2.83;;;;;;;;;;5033805;28;20025;-64
2023/02/22 12:21:28;;;;;;;7.22;3.70;;;;;;;;;;5034896;28;20026;-67
2023/02/22 12:24:06;;;;;;;6.88;3.35;;;;;;;;;;5036352;28;20035;-65
2023/02/22 12:26:36;;;;;;;6.03;3.20;;;;;;;;;;5035434;28;20092;-65
2023/02/22 12:29:31;;;;;;;6.90;3.47;;;;;;;;;;5036400;28;20357;-65
2023/02/22 12:31:56;;;;;;;5.65;3.03;;;;;;;;;;5026731;28;20029;-65
2023/02/22 12:34:29;;;;;;;6.30;3.00;;;;;;;;;;5036393;28;20017;-65
2023/02/22 12:37:03;;;;;;;8.80;2.95;;;;;;;;;;5036652;28;20036;-65
2023/02/22 12:39:42;;;;;;;7.07;2.78;;;;;;;;;;5036442;28;20056;-65
2023/02/22 12:42:13;;;;;;;5.32;2.70;;;;;;;;;;5036716;28;20092;-66
2023/02/22 12:44:41;;;;;;;7.30;2.63;;;;;;;;;;5035719;28;20028;-65
2023/02/22 12:47:09;;;;;;;5.80;2.33;;;;;;;;;;5035450;28;20045;-65
2023/02/22 12:49:37;;;;;;;5.45;2.30;;;;;;;;;;5036299;28;20099;-65
2023/02/22 12:52:12;;;;;;;5.28;2.60;;;;;;;;;;5036562;28;20536;-66
2023/02/22 12:54:52;;;;;;;4.90;2.50;;;;;;;;;;5033573;28;20064;-65
2023/02/22 12:57:20;;;;;;;5.82;2.72;;;;;;;;;;5036143;28;20029;-65
2023/02/22 12:59:48;;;;;;;6.40;3.13;;;;;;;;;;5035941;28;20022;-65
2023/02/22 13:02:21;;;;;;;5.60;2.80;;;;;;;;;;5035484;28;20030;-65
2023/02/22 13:04:46;;;;;;;4.95;2.70;;;;;;;;;;5035393;28;20025;-65
2023/02/22 13:07:26;;;;;;;5.97;2.80;;;;;;;;;;5035624;28;20364;-65
2023/02/22 13:09:51;;;;;;;5.05;2.35;;;;;;;;;;5027849;28;20436;-66
2023/02/22 13:12:24;;;;;;;4.90;2.35;;;;;;;;;;5036038;28;20028;-65
2023/02/22 13:14:49;;;;;;;;;;;;;;;;;;5035863;28;20039;-66
2023/02/22 13:17:23;;;;;;;5.13;2.50;;;;;;;;;;5035705;28;19996;-65
2023/02/22 13:19:53;;;;;;;6.25;2.78;;;;;;;;;;5035236;28;20429;-65
2023/02/22 13:22:25;;;;;;;4.90;2.15;;;;;;;;;;5032662;28;20032;-65
2023/02/22 13:24:50;;;;;;;;;;;;;;;;;;5032789;28;20044;-65
2023/02/22 13:27:18;;;;;;;5.07;2.38;;;;;;;;;;5033915;28;19905;-65
2023/02/22 13:29:45;;;;;;;4.85;2.15;;;;;;;;;;5032309;28;20033;-66
2023/02/22 13:32:18;;;;;;;5.10;2.25;;;;;;;;;;5032920;28;20028;-66
2023/02/22 13:34:53;;;;;;;6.35;2.33;;;;;;;;;;5031004;28;20492;-66
2023/02/22 13:37:33;;;;;;;5.18;2.28;;;;;;;;;;5032615;28;20033;-65
2023/02/22 13:40:21;;;;;;;4.55;2.10;;;;;;;;;;5033555;28;20045;-65
2023/02/22 13:43:00;;;;;;;5.35;2.65;;;;;;;;;;5026840;28;20366;-65
2023/02/22 13:45:43;;;;;;;5.40;2.70;;;;;;;;;;5031138;28;20068;-65
2023/02/22 13:48:17;;;;;;;6.05;2.30;;;;;;;;;;5032852;28;20044;-64
2023/02/22 13:51:01;;;;;;;5.97;2.50;;;;;;;;;;5033149;28;20137;-64
2023/02/22 13:53:35;;;;;;;4.68;2.35;;;;;;;;;;5033088;28;20017;-64
2023/02/22 13:56:00;;;;;;;5.20;2.38;;;;;;;;;;5012768;28;20026;-64
2023/02/22 13:58:26;;;;;;;4.43;1.93;;;;;;;;;;5026943;28;20017;-65
2023/02/22 14:00:51;;;;;;;4.78;2.20;;;;;;;;;;5042814;28;20036;-65
2023/02/22 14:03:28;;;;;;;6.50;2.50;;;;;;;;;;5036429;28;20083;-67
2023/02/22 14:05:56;;;;;;;5.80;2.40;;;;;;;;;;5031315;28;20728;-65
2023/02/22 14:08:21;;;;;;;7.28;2.75;;;;;;;;;;5030196;28;20338;-67
2023/02/22 14:10:48;;;;;;;7.60;2.88;;;;;;;;;;5029483;28;20451;-64
2023/02/22 14:13:15;;;;;;;5.10;2.40;;;;;;;;;;5032033;28;20040;-65
2023/02/22 14:15:59;;;;;;;4.90;2.40;;;;;;;;;;5031542;28;20469;-66
2023/02/22 14:18:26;;;;;;;5.47;2.70;;;;;;;;;;5032147;28;20029;-64
2023/02/22 14:21:03;;;;;;;5.15;2.33;;;;;;;;;;5031347;28;20029;-65
2023/02/22 14:23:33;;;;;;;5.25;2.35;;;;;;;;;;5024245;28;20075;-64
2023/02/22 14:26:10;;;;;;;5.10;2.67;;;;;;;;;;5030882;28;20049;-65
2023/02/22 14:28:41;;;;;;;5.65;2.90;;;;;;;;;;5025194;28;20029;-66
2023/02/22 14:31:11;;;;;;;4.75;2.42;;;;;;;;;;5032074;28;20631;-66
2023/02/22 14:33:55;;;;;;;6.53;2.60;;;;;;;;;;5032026;28;20029;-65
2023/02/22 14:36:22;;;;;;;6.07;2.75;;;;;;;;;;5032958;28;20075;-65
2023/02/22 14:38:48;;;;;;;6.50;2.70;;;;;;;;;;5032374;28;20481;-65
2023/02/22 14:41:15;;;;;;;5.25;2.53;;;;;;;;;;5031002;28;20029;-64
2023/02/22 14:43:42;;;;;;;4.97;2.30;;;;;;;;;;5030415;28;20043;-65
2023/02/22 14:46:09;;;;;;;4.60;2.35;;;;;;;;;;5030494;28;20040;-65